createdAt,value
2018-11-03T00:00:37.217Z,11.60
2018-11-03T00:01:37.217Z,10.00
2018-11-03T00:02:37.232Z,11.00
2018-11-03T00:03:37.247Z,10.30
2018-11-03T00:04:37.260Z,9.30
2018-11-03T00:05:37.354Z,9.70
2018-11-03T00:06:37.264Z,11.20
2018-11-03T00:07:37.274Z,10.10
2018-11-03T00:08:37.284Z,12.20
2018-11-03T00:09:37.298Z,10.10
2018-11-03T00:10:37.306Z,12.00
2018-11-03T00:12:37.321Z,10.60
2018-11-03T00:13:37.813Z,10.80
2018-11-03T00:14:37.955Z,10.50
2018-11-03T00:15:37.773Z,11.80
2018-11-03T00:16:37.361Z,10.30
2018-11-03T00:17:37.373Z,10.20
2018-11-03T00:18:37.429Z,11.60
2018-11-03T00:19:37.462Z,10.90
2018-11-03T00:20:37.405Z,12.50
2018-11-03T00:21:37.406Z,13.30
2018-11-03T00:22:37.416Z,11.80
2018-11-03T00:23:37.430Z,11.50
2018-11-03T00:24:37.435Z,10.60
2018-11-03T00:25:37.452Z,9.40
2018-11-03T00:26:37.453Z,10.10
2018-11-03T00:27:37.469Z,11.60
2018-11-03T00:28:37.484Z,11.10
2018-11-03T00:29:37.534Z,13.10
2018-11-03T00:30:37.494Z,10.60
2018-11-03T00:31:37.501Z,9.30
2018-11-03T00:32:37.520Z,11.10
2018-11-03T00:33:37.523Z,9.20
2018-11-03T00:34:37.529Z,9.90
2018-11-03T00:35:37.542Z,10.20
2018-11-03T00:36:37.549Z,10.70
2018-11-03T00:37:37.629Z,9.80
2018-11-03T00:38:37.567Z,10.70
2018-11-03T00:39:37.580Z,9.30
2018-11-03T00:40:37.661Z,9.70
2018-11-03T00:42:37.705Z,10.50
2018-11-03T00:43:40.139Z,10.30
2018-11-03T00:44:37.665Z,9.50
2018-11-03T00:46:38.300Z,9.80
2018-11-03T00:47:37.650Z,11.50
2018-11-03T00:48:37.693Z,10.60
2018-11-03T00:49:37.708Z,10.70
2018-11-03T00:50:37.681Z,9.80
2018-11-03T00:51:37.694Z,10.50
2018-11-03T00:52:37.704Z,12.90
2018-11-03T00:53:37.709Z,11.40
2018-11-03T00:54:37.717Z,10.50
2018-11-03T00:55:37.729Z,9.80
2018-11-03T00:56:37.741Z,10.20
2018-11-03T00:57:37.749Z,11.10
2018-11-03T00:58:37.757Z,9.90
2018-11-03T00:59:37.765Z,10.90
2018-11-03T01:00:37.844Z,10.30
2018-11-03T01:01:37.788Z,11.80
2018-11-03T01:02:37.800Z,14.70
2018-11-03T01:03:37.804Z,10.90
2018-11-03T01:04:37.813Z,13.90
2018-11-03T01:05:37.823Z,11.40
2018-11-03T01:06:37.833Z,10.00
2018-11-03T01:07:37.844Z,10.30
2018-11-03T01:08:37.860Z,9.80
2018-11-03T01:09:37.879Z,10.60
2018-11-03T01:10:37.870Z,11.50
2018-11-03T01:11:37.876Z,11.70
2018-11-03T01:12:37.896Z,11.00
2018-11-03T01:13:38.435Z,11.60
2018-11-03T01:16:38.190Z,12.30
2018-11-03T01:18:38.406Z,11.50
2018-11-03T01:19:37.950Z,12.90
2018-11-03T01:20:37.996Z,11.80
2018-11-03T01:21:37.980Z,11.70
2018-11-03T01:22:38.003Z,11.00
2018-11-03T01:23:38.037Z,13.40
2018-11-03T01:24:38.000Z,12.70
2018-11-03T01:25:38.007Z,13.90
2018-11-03T01:26:38.015Z,11.30
2018-11-03T01:27:38.036Z,13.40
2018-11-03T01:28:38.035Z,13.80
2018-11-03T01:29:38.068Z,12.30
2018-11-03T01:30:38.055Z,13.30
2018-11-03T01:31:38.062Z,12.50
2018-11-03T01:32:38.213Z,14.80
2018-11-03T01:33:38.109Z,15.20
2018-11-03T01:34:38.090Z,15.30
2018-11-03T01:35:38.102Z,12.90
2018-11-03T01:36:38.107Z,14.00
2018-11-03T01:37:38.118Z,14.00
2018-11-03T01:38:38.127Z,12.40
2018-11-03T01:39:38.134Z,14.70
2018-11-03T01:40:38.165Z,13.00
2018-11-03T01:41:38.265Z,13.90
2018-11-03T01:42:38.293Z,14.40
2018-11-03T01:43:38.171Z,13.80
2018-11-03T01:44:38.182Z,14.10
2018-11-03T01:45:38.215Z,15.60
2018-11-03T01:47:38.226Z,14.40
2018-11-03T01:49:38.231Z,16.30
2018-11-03T01:50:38.237Z,14.10
2018-11-03T01:51:38.250Z,14.20
2018-11-03T01:52:38.266Z,15.40
2018-11-03T01:53:38.276Z,15.70
2018-11-03T01:54:38.292Z,15.60
2018-11-03T01:55:38.285Z,14.60
2018-11-03T01:56:38.296Z,12.70
2018-11-03T01:57:38.317Z,13.60
2018-11-03T01:58:38.313Z,13.70
2018-11-03T01:59:38.327Z,14.90
2018-11-03T02:00:38.330Z,12.90
2018-11-03T02:01:38.337Z,14.20
2018-11-03T02:02:38.355Z,15.10
2018-11-03T02:03:38.359Z,14.50
2018-11-03T02:04:38.366Z,17.90
2018-11-03T02:05:38.384Z,15.00
2018-11-03T02:06:38.384Z,13.20
2018-11-03T02:07:38.395Z,15.40
2018-11-03T02:08:38.405Z,14.00
2018-11-03T02:09:38.418Z,16.10
2018-11-03T02:10:38.423Z,17.30
2018-11-03T02:11:38.553Z,13.10
2018-11-03T02:12:38.451Z,11.60
2018-11-03T02:13:38.447Z,15.70
2018-11-03T02:14:38.459Z,15.10
2018-11-03T02:15:38.465Z,15.50
2018-11-03T02:16:38.588Z,13.80
2018-11-03T02:17:38.709Z,14.80
2018-11-03T02:18:38.734Z,14.60
2018-11-03T02:20:38.756Z,11.90
2018-11-03T02:22:38.529Z,14.50
2018-11-03T02:23:38.604Z,15.40
2018-11-03T02:24:38.547Z,13.30
2018-11-03T02:25:38.577Z,13.40
2018-11-03T02:26:38.565Z,13.90
2018-11-03T02:27:38.574Z,14.00
2018-11-03T02:28:38.581Z,16.30
2018-11-03T02:29:38.606Z,15.10
2018-11-03T02:30:38.603Z,13.00
2018-11-03T02:31:38.608Z,14.40
2018-11-03T02:32:38.626Z,13.60
2018-11-03T02:33:38.662Z,15.40
2018-11-03T02:34:38.634Z,14.30
2018-11-03T02:35:38.734Z,13.80
2018-11-03T02:36:38.662Z,15.60
2018-11-03T02:37:38.668Z,13.60
2018-11-03T02:38:38.672Z,14.50
2018-11-03T02:39:38.684Z,13.30
2018-11-03T02:40:38.694Z,14.40
2018-11-03T02:41:38.721Z,13.50
2018-11-03T02:42:38.721Z,15.00
2018-11-03T02:43:38.738Z,14.00
2018-11-03T02:44:38.737Z,15.10
2018-11-03T02:45:38.803Z,14.00
2018-11-03T02:46:38.791Z,12.50
2018-11-03T02:48:38.863Z,12.80
2018-11-03T02:49:39.129Z,12.60
2018-11-03T02:50:39.155Z,13.00
2018-11-03T02:51:40.145Z,13.80
2018-11-03T02:52:38.911Z,14.60
2018-11-03T02:53:38.807Z,13.40
2018-11-03T02:54:38.814Z,12.40
2018-11-03T02:55:38.831Z,13.20
2018-11-03T02:56:38.844Z,13.50
2018-11-03T02:57:38.847Z,14.00
2018-11-03T02:58:38.853Z,15.20
2018-11-03T02:59:38.887Z,13.10
2018-11-03T03:00:38.873Z,14.70
2018-11-03T03:01:38.882Z,18.30
2018-11-03T03:02:38.889Z,15.60
2018-11-03T03:03:38.906Z,13.90
2018-11-03T03:04:38.917Z,13.70
2018-11-03T03:05:38.924Z,14.00
2018-11-03T03:06:38.934Z,16.10
2018-11-03T03:07:38.934Z,14.60
2018-11-03T03:08:38.961Z,14.80
2018-11-03T03:09:38.971Z,17.50
2018-11-03T03:10:38.961Z,15.80
2018-11-03T03:11:38.977Z,16.10
2018-11-03T03:12:38.978Z,14.90
2018-11-03T03:13:38.986Z,15.40
2018-11-03T03:14:39.002Z,16.60
2018-11-03T03:15:39.015Z,15.50
2018-11-03T03:16:39.117Z,14.90
2018-11-03T03:17:39.156Z,14.30
2018-11-03T03:18:39.037Z,14.80
2018-11-03T03:22:39.951Z,18.40
2018-11-03T03:23:39.086Z,19.30
2018-11-03T03:24:39.083Z,18.40
2018-11-03T03:25:39.094Z,17.50
2018-11-03T03:26:39.105Z,18.40
2018-11-03T03:27:39.111Z,16.10
2018-11-03T03:28:39.210Z,16.20
2018-11-03T03:29:39.244Z,16.40
2018-11-03T03:30:39.164Z,16.30
2018-11-03T03:31:39.147Z,16.40
2018-11-03T03:32:39.161Z,14.50
2018-11-03T03:33:39.162Z,19.40
2018-11-03T03:34:39.185Z,16.90
2018-11-03T03:35:39.751Z,16.50
2018-11-03T03:36:39.197Z,15.10
2018-11-03T03:37:39.200Z,15.90
2018-11-03T03:38:39.247Z,14.00
2018-11-03T03:39:39.222Z,14.00
2018-11-03T03:40:39.251Z,17.40
2018-11-03T03:41:39.235Z,13.60
2018-11-03T03:42:39.244Z,16.40
2018-11-03T03:43:39.252Z,14.10
2018-11-03T03:45:39.271Z,14.50
2018-11-03T03:46:39.282Z,14.90
2018-11-03T03:47:39.309Z,13.40
2018-11-03T03:48:39.297Z,19.70
2018-11-03T03:49:39.314Z,16.40
2018-11-03T03:50:39.320Z,16.20
2018-11-03T03:51:39.679Z,15.80
2018-11-03T03:52:40.123Z,13.40
2018-11-03T03:53:39.489Z,15.80
2018-11-03T03:54:39.349Z,15.20
2018-11-03T03:55:39.359Z,15.40
2018-11-03T03:56:39.382Z,12.90
2018-11-03T03:57:39.380Z,16.90
2018-11-03T03:58:39.390Z,14.50
2018-11-03T03:59:39.396Z,16.00
2018-11-03T04:00:39.409Z,15.00
2018-11-03T04:01:39.438Z,15.70
2018-11-03T04:02:39.431Z,15.00
2018-11-03T04:03:39.439Z,16.00
2018-11-03T04:04:39.448Z,16.80
2018-11-03T04:05:39.452Z,12.90
2018-11-03T04:06:39.456Z,15.20
2018-11-03T04:07:39.462Z,14.60
2018-11-03T04:08:39.475Z,15.00
2018-11-03T04:09:39.486Z,14.40
2018-11-03T04:10:39.561Z,12.40
2018-11-03T04:11:39.504Z,15.50
2018-11-03T04:12:39.546Z,16.40
2018-11-03T04:13:39.516Z,15.70
2018-11-03T04:14:39.530Z,16.90
2018-11-03T04:15:39.564Z,14.30
2018-11-03T04:16:39.546Z,15.90
2018-11-03T04:17:39.552Z,15.00
2018-11-03T04:18:39.565Z,14.00
2018-11-03T04:19:39.579Z,14.90
2018-11-03T04:20:39.620Z,13.90
2018-11-03T04:21:40.059Z,15.00
2018-11-03T04:22:39.711Z,15.70
2018-11-03T04:23:40.001Z,13.60
2018-11-03T04:24:39.751Z,13.70
2018-11-03T04:25:39.688Z,14.70
2018-11-03T04:26:39.692Z,16.60
2018-11-03T04:27:39.649Z,14.00
2018-11-03T04:28:39.667Z,17.00
2018-11-03T04:29:39.663Z,15.70
2018-11-03T04:30:39.669Z,14.70
2018-11-03T04:31:39.682Z,13.90
2018-11-03T04:32:39.692Z,14.20
2018-11-03T04:33:39.693Z,14.10
2018-11-03T04:34:39.699Z,15.90
2018-11-03T04:35:39.709Z,14.70
2018-11-03T04:36:39.715Z,15.70
2018-11-03T04:37:39.721Z,14.60
2018-11-03T04:38:39.733Z,14.20
2018-11-03T04:39:39.739Z,15.80
2018-11-03T04:40:39.750Z,15.10
2018-11-03T04:41:39.757Z,15.50
2018-11-03T04:42:39.764Z,15.20
2018-11-03T04:43:39.774Z,15.20
2018-11-03T04:44:39.782Z,17.00
2018-11-03T04:45:39.928Z,17.50
2018-11-03T04:46:39.805Z,14.10
2018-11-03T04:47:39.819Z,17.00
2018-11-03T04:48:39.820Z,14.80
2018-11-03T04:49:39.830Z,16.50
2018-11-03T04:50:39.836Z,15.10
2018-11-03T04:51:39.845Z,16.40
2018-11-03T04:53:39.865Z,17.20
2018-11-03T04:56:40.725Z,16.10
2018-11-03T04:57:40.776Z,13.10
2018-11-03T04:58:39.912Z,15.00
2018-11-03T04:59:39.926Z,16.80
2018-11-03T05:00:39.924Z,16.50
2018-11-03T05:01:39.932Z,16.80
2018-11-03T05:02:39.941Z,15.40
2018-11-03T05:03:39.953Z,16.40
2018-11-03T05:04:39.981Z,15.40
2018-11-03T05:05:39.967Z,13.80
2018-11-03T05:06:39.975Z,14.20
2018-11-03T05:07:39.987Z,16.20
2018-11-03T05:08:39.996Z,15.80
2018-11-03T05:09:40.047Z,15.40
2018-11-03T05:10:40.018Z,18.20
2018-11-03T05:11:40.027Z,14.70
2018-11-03T05:12:40.029Z,14.00
2018-11-03T05:13:40.058Z,15.70
2018-11-03T05:14:40.049Z,14.70
2018-11-03T05:15:40.102Z,16.90
2018-11-03T05:16:40.076Z,16.60
2018-11-03T05:17:40.075Z,15.30
2018-11-03T05:18:40.146Z,14.40
2018-11-03T05:19:40.113Z,13.70
2018-11-03T05:20:40.149Z,19.00
2018-11-03T05:21:40.113Z,15.60
2018-11-03T05:22:40.121Z,17.90
2018-11-03T05:23:40.461Z,17.50
2018-11-03T05:24:40.439Z,12.80
2018-11-03T05:26:40.613Z,17.70
2018-11-03T05:28:40.177Z,19.70
2018-11-03T05:29:40.248Z,18.60
2018-11-03T05:30:40.194Z,16.60
2018-11-03T05:31:40.201Z,13.80
2018-11-03T05:32:40.204Z,15.50
2018-11-03T05:33:40.212Z,15.40
2018-11-03T05:34:40.231Z,16.80
2018-11-03T05:35:40.247Z,15.60
2018-11-03T05:36:40.244Z,13.60
2018-11-03T05:37:40.272Z,12.50
2018-11-03T05:38:40.270Z,13.60
2018-11-03T05:39:40.266Z,15.80
2018-11-03T05:40:40.272Z,15.60
2018-11-03T05:41:40.282Z,18.00
2018-11-03T05:42:40.296Z,14.90
2018-11-03T05:43:40.306Z,14.50
2018-11-03T05:44:40.319Z,14.80
2018-11-03T05:45:40.333Z,14.70
2018-11-03T05:46:40.423Z,14.90
2018-11-03T05:47:40.339Z,14.60
2018-11-03T05:48:40.343Z,15.00
2018-11-03T05:49:40.359Z,13.10
2018-11-03T05:50:40.361Z,16.70
2018-11-03T05:51:40.370Z,14.50
2018-11-03T05:52:40.382Z,14.40
2018-11-03T05:53:40.387Z,14.80
2018-11-03T05:54:40.398Z,17.70
2018-11-03T05:55:40.466Z,17.00
2018-11-03T05:56:40.582Z,16.40
2018-11-03T05:57:40.926Z,14.80
2018-11-03T05:58:40.714Z,15.20
2018-11-03T05:59:41.017Z,16.30
2018-11-03T06:00:40.506Z,14.10
2018-11-03T06:01:40.482Z,16.20
2018-11-03T06:02:40.478Z,14.00
2018-11-03T06:03:40.475Z,14.20
2018-11-03T06:04:40.497Z,15.90
2018-11-03T06:05:40.493Z,15.70
2018-11-03T06:06:40.515Z,14.40
2018-11-03T06:07:40.540Z,15.70
2018-11-03T06:08:40.537Z,14.30
2018-11-03T06:09:40.529Z,15.50
2018-11-03T06:10:40.537Z,16.00
2018-11-03T06:11:40.557Z,14.10
2018-11-03T06:12:40.552Z,16.10
2018-11-03T06:13:40.562Z,15.70
2018-11-03T06:14:40.570Z,17.10
2018-11-03T06:15:40.797Z,16.20
2018-11-03T06:16:40.600Z,13.40
2018-11-03T06:17:40.600Z,14.10
2018-11-03T06:18:40.606Z,16.50
2018-11-03T06:19:40.627Z,16.60
2018-11-03T06:20:40.623Z,14.20
2018-11-03T06:21:40.647Z,17.20
2018-11-03T06:22:40.848Z,14.60
2018-11-03T06:23:40.688Z,15.90
2018-11-03T06:24:40.672Z,15.80
2018-11-03T06:25:40.720Z,16.00
2018-11-03T06:26:40.675Z,15.60
2018-11-03T06:27:40.750Z,12.90
2018-11-03T06:28:40.695Z,14.80
2018-11-03T06:29:40.703Z,15.10
2018-11-03T06:31:40.797Z,15.80
2018-11-03T06:32:40.734Z,17.40
2018-11-03T06:33:40.740Z,16.00
2018-11-03T06:34:40.755Z,14.70
2018-11-03T06:35:40.756Z,16.00
2018-11-03T06:36:40.763Z,17.70
2018-11-03T06:37:40.822Z,15.40
2018-11-03T06:38:40.803Z,17.70
2018-11-03T06:39:40.801Z,17.60
2018-11-03T06:40:40.809Z,15.00
2018-11-03T06:41:40.807Z,14.00
2018-11-03T06:42:40.828Z,16.60
2018-11-03T06:43:40.824Z,15.70
2018-11-03T06:44:40.830Z,15.90
2018-11-03T06:45:40.839Z,16.40
2018-11-03T06:46:40.871Z,16.60
2018-11-03T06:47:40.858Z,21.00
2018-11-03T06:48:40.873Z,16.30
2018-11-03T06:49:40.877Z,16.20
2018-11-03T06:50:40.882Z,15.80
2018-11-03T06:52:40.904Z,16.90
2018-11-03T06:53:40.911Z,18.40
2018-11-03T06:54:40.919Z,14.40
2018-11-03T06:55:40.925Z,14.90
2018-11-03T06:56:40.942Z,17.50
2018-11-03T06:57:40.949Z,16.80
2018-11-03T06:58:40.951Z,16.20
2018-11-03T06:59:40.968Z,17.30
2018-11-03T07:00:40.972Z,15.40
2018-11-03T07:03:41.787Z,16.60
2018-11-03T07:04:41.008Z,17.10
2018-11-03T07:05:41.014Z,15.80
2018-11-03T07:06:41.022Z,16.60
2018-11-03T07:07:41.033Z,14.90
2018-11-03T07:08:41.038Z,14.90
2018-11-03T07:09:41.048Z,15.90
2018-11-03T07:10:41.181Z,12.90
2018-11-03T07:11:41.246Z,15.70
2018-11-03T07:12:41.274Z,15.30
2018-11-03T07:13:41.094Z,20.10
2018-11-03T07:14:41.090Z,16.50
2018-11-03T07:15:41.141Z,17.60
2018-11-03T07:16:41.111Z,14.00
2018-11-03T07:17:41.122Z,16.00
2018-11-03T07:18:41.125Z,16.50
2018-11-03T07:19:41.140Z,17.60
2018-11-03T07:21:41.249Z,14.10
2018-11-03T07:22:41.164Z,18.50
2018-11-03T07:23:41.196Z,15.60
2018-11-03T07:24:41.193Z,18.90
2018-11-03T07:25:41.187Z,16.10
2018-11-03T07:26:41.201Z,16.90
2018-11-03T07:27:41.205Z,21.10
2018-11-03T07:28:41.216Z,19.90
2018-11-03T07:29:41.294Z,17.30
2018-11-03T07:31:41.257Z,15.80
2018-11-03T07:32:41.462Z,18.10
2018-11-03T07:33:41.259Z,17.40
2018-11-03T07:34:41.327Z,17.10
2018-11-03T07:35:41.279Z,17.10
2018-11-03T07:36:41.287Z,17.30
2018-11-03T07:37:41.299Z,18.20
2018-11-03T07:38:41.446Z,16.90
2018-11-03T07:39:41.320Z,14.30
2018-11-03T07:40:41.349Z,19.10
2018-11-03T07:41:41.393Z,21.70
2018-11-03T07:42:41.433Z,17.30
2018-11-03T07:43:41.491Z,20.50
2018-11-03T07:44:41.373Z,15.20
2018-11-03T07:46:41.430Z,16.50
2018-11-03T07:47:41.699Z,14.50
2018-11-03T07:48:41.425Z,16.30
2018-11-03T07:49:41.475Z,15.70
2018-11-03T07:50:41.417Z,17.60
2018-11-03T07:51:41.424Z,18.60
2018-11-03T07:52:41.453Z,15.60
2018-11-03T07:53:41.777Z,17.70
2018-11-03T07:54:41.488Z,16.40
2018-11-03T07:55:41.462Z,18.40
2018-11-03T07:56:41.467Z,16.70
2018-11-03T07:57:42.424Z,15.30
2018-11-03T07:58:41.486Z,17.80
2018-11-03T07:59:41.501Z,18.30
2018-11-03T08:00:41.655Z,16.70
2018-11-03T08:01:41.516Z,18.50
2018-11-03T08:02:41.523Z,17.10
2018-11-03T08:03:41.535Z,18.80
2018-11-03T08:04:41.575Z,18.10
2018-11-03T08:05:41.709Z,18.80
2018-11-03T08:06:41.562Z,18.20
2018-11-03T08:07:41.573Z,17.20
2018-11-03T08:08:41.583Z,18.40
2018-11-03T08:09:41.592Z,22.10
2018-11-03T08:11:41.799Z,17.10
2018-11-03T08:12:41.618Z,20.20
2018-11-03T08:13:42.403Z,19.20
2018-11-03T08:14:41.789Z,20.20
2018-11-03T08:15:41.674Z,19.70
2018-11-03T08:16:41.724Z,20.10
2018-11-03T08:17:41.665Z,19.30
2018-11-03T08:18:41.673Z,20.30
2018-11-03T08:19:41.685Z,18.70
2018-11-03T08:20:41.729Z,20.30
2018-11-03T08:21:41.756Z,18.70
2018-11-03T08:22:41.714Z,18.50
2018-11-03T08:23:41.786Z,21.50
2018-11-03T08:24:41.733Z,21.50
2018-11-03T08:25:41.746Z,19.70
2018-11-03T08:26:41.754Z,20.30
2018-11-03T08:27:41.780Z,18.40
2018-11-03T08:28:41.783Z,21.20
2018-11-03T08:29:41.778Z,22.30
2018-11-03T08:30:41.837Z,18.80
2018-11-03T08:31:41.974Z,20.70
2018-11-03T08:33:41.922Z,21.10
2018-11-03T08:34:41.827Z,21.00
2018-11-03T08:35:41.835Z,19.40
2018-11-03T08:36:41.863Z,17.40
2018-11-03T08:37:41.853Z,19.20
2018-11-03T08:38:41.879Z,20.00
2018-11-03T08:39:41.917Z,19.40
2018-11-03T08:40:41.882Z,17.60
2018-11-03T08:41:41.890Z,22.10
2018-11-03T08:42:41.898Z,18.70
2018-11-03T08:43:41.908Z,19.30
2018-11-03T08:44:41.919Z,20.50
2018-11-03T08:45:41.933Z,20.90
2018-11-03T08:46:41.941Z,19.90
2018-11-03T08:47:41.949Z,17.80
2018-11-03T08:48:42.030Z,16.80
2018-11-03T08:49:41.967Z,18.70
2018-11-03T08:50:42.035Z,17.10
2018-11-03T08:51:41.988Z,20.00
2018-11-03T08:52:41.994Z,19.10
2018-11-03T08:53:42.004Z,20.00
2018-11-03T08:54:42.014Z,17.40
2018-11-03T08:55:42.024Z,22.20
2018-11-03T08:56:42.045Z,19.60
2018-11-03T08:57:42.043Z,19.60
2018-11-03T08:58:42.052Z,19.20
2018-11-03T08:59:42.353Z,20.20
2018-11-03T09:00:42.205Z,19.90
2018-11-03T09:01:42.373Z,18.50
2018-11-03T09:02:42.676Z,17.40
2018-11-03T09:03:42.134Z,19.00
2018-11-03T09:04:42.124Z,17.60
2018-11-03T09:05:42.151Z,18.90
2018-11-03T09:06:42.131Z,18.80
2018-11-03T09:07:42.145Z,20.80
2018-11-03T09:08:42.152Z,22.00
2018-11-03T09:09:42.157Z,20.60
2018-11-03T09:10:42.168Z,19.60
2018-11-03T09:11:42.180Z,20.30
2018-11-03T09:12:42.188Z,20.10
2018-11-03T09:13:42.197Z,20.70
2018-11-03T09:14:42.252Z,19.80
2018-11-03T09:15:42.216Z,20.30
2018-11-03T09:16:42.229Z,21.50
2018-11-03T09:17:42.237Z,21.40
2018-11-03T09:18:42.245Z,23.70
2018-11-03T09:19:42.270Z,19.90
2018-11-03T09:20:42.287Z,22.60
2018-11-03T09:21:42.355Z,21.60
2018-11-03T09:22:42.350Z,20.40
2018-11-03T09:23:42.295Z,20.80
2018-11-03T09:24:42.306Z,21.10
2018-11-03T09:25:42.315Z,19.90
2018-11-03T09:26:42.328Z,20.00
2018-11-03T09:27:42.345Z,20.30
2018-11-03T09:28:42.361Z,21.60
2018-11-03T09:29:42.406Z,18.60
2018-11-03T09:30:42.428Z,19.60
2018-11-03T09:31:42.561Z,21.20
2018-11-03T09:32:42.418Z,24.20
2018-11-03T09:33:43.005Z,24.00
2018-11-03T09:34:43.054Z,22.00
2018-11-03T09:35:42.419Z,22.10
2018-11-03T09:36:42.471Z,20.40
2018-11-03T09:37:42.436Z,18.20
2018-11-03T09:38:42.536Z,23.20
2018-11-03T09:39:42.527Z,19.50
2018-11-03T09:40:42.468Z,20.00
2018-11-03T09:41:42.475Z,18.30
2018-11-03T09:42:42.486Z,18.80
2018-11-03T09:43:42.494Z,19.30
2018-11-03T09:44:42.553Z,19.30
2018-11-03T09:45:42.938Z,19.20
2018-11-03T09:46:42.527Z,20.90
2018-11-03T09:47:42.536Z,18.90
2018-11-03T09:48:42.550Z,18.30
2018-11-03T09:49:42.573Z,20.00
2018-11-03T09:50:42.616Z,17.90
2018-11-03T09:51:42.577Z,22.30
2018-11-03T09:52:42.586Z,21.10
2018-11-03T09:53:42.604Z,18.50
2018-11-03T09:54:42.606Z,19.60
2018-11-03T09:55:42.617Z,21.30
2018-11-03T09:56:42.678Z,19.70
2018-11-03T09:57:42.640Z,23.00
2018-11-03T09:58:42.647Z,19.00
2018-11-03T09:59:42.661Z,22.60
2018-11-03T10:00:42.700Z,20.70
2018-11-03T10:01:42.677Z,22.90
2018-11-03T10:02:42.738Z,19.50
2018-11-03T10:03:42.700Z,19.80
2018-11-03T10:04:42.761Z,18.40
2018-11-03T10:05:42.752Z,18.70
2018-11-03T10:06:42.806Z,19.80
2018-11-03T10:07:42.737Z,19.10
2018-11-03T10:08:42.748Z,19.80
2018-11-03T10:09:42.796Z,21.40
2018-11-03T10:10:42.763Z,23.20
2018-11-03T10:11:42.775Z,20.10
2018-11-03T10:12:42.784Z,22.20
2018-11-03T10:13:42.798Z,23.70
2018-11-03T10:14:42.819Z,19.10
2018-11-03T10:15:42.846Z,19.20
2018-11-03T10:16:42.825Z,22.10
2018-11-03T10:17:43.485Z,19.00
2018-11-03T10:18:42.917Z,19.70
2018-11-03T10:19:42.869Z,19.40
2018-11-03T10:20:42.888Z,19.90
2018-11-03T10:21:42.876Z,19.00
2018-11-03T10:22:42.936Z,22.10
2018-11-03T10:23:42.894Z,20.90
2018-11-03T10:24:42.911Z,21.60
2018-11-03T10:25:42.917Z,20.50
2018-11-03T10:26:42.926Z,19.30
2018-11-03T10:27:42.936Z,21.60
2018-11-03T10:28:42.948Z,22.70
2018-11-03T10:29:43.688Z,20.00
2018-11-03T10:30:42.969Z,18.60
2018-11-03T10:31:43.043Z,20.80
2018-11-03T10:32:43.051Z,24.00
2018-11-03T10:33:43.006Z,18.90
2018-11-03T10:34:43.078Z,22.50
2018-11-03T10:35:43.185Z,19.10
2018-11-03T10:36:43.055Z,18.30
2018-11-03T10:37:43.043Z,26.00
2018-11-03T10:38:43.053Z,17.40
2018-11-03T10:39:43.094Z,17.70
2018-11-03T10:40:43.074Z,18.30
2018-11-03T10:41:43.081Z,18.50
2018-11-03T10:42:43.093Z,20.80
2018-11-03T10:43:43.104Z,19.90
2018-11-03T10:44:43.117Z,20.40
2018-11-03T10:45:43.124Z,19.80
2018-11-03T10:46:43.138Z,19.60
2018-11-03T10:47:43.155Z,21.20
2018-11-03T10:48:43.155Z,19.00
2018-11-03T10:49:43.166Z,19.70
2018-11-03T10:50:43.175Z,18.50
2018-11-03T10:51:43.193Z,18.90
2018-11-03T10:52:43.198Z,19.40
2018-11-03T10:53:43.308Z,18.00
2018-11-03T10:54:43.224Z,17.10
2018-11-03T10:55:43.230Z,19.10
2018-11-03T10:56:44.181Z,18.90
2018-11-03T10:57:43.251Z,18.70
2018-11-03T10:58:43.272Z,17.80
2018-11-03T10:59:43.321Z,18.60
2018-11-03T11:00:43.351Z,18.40
2018-11-03T11:01:43.412Z,18.00
2018-11-03T11:02:43.335Z,18.50
2018-11-03T11:03:43.528Z,18.40
2018-11-03T11:04:43.340Z,18.40
2018-11-03T11:05:43.335Z,20.00
2018-11-03T11:06:43.362Z,20.20
2018-11-03T11:07:43.354Z,18.10
2018-11-03T11:08:43.543Z,21.10
2018-11-03T11:09:43.381Z,20.90
2018-11-03T11:10:43.390Z,17.90
2018-11-03T11:11:43.398Z,20.90
2018-11-03T11:12:43.461Z,19.30
2018-11-03T11:13:43.418Z,18.20
2018-11-03T11:14:43.432Z,19.10
2018-11-03T11:15:43.504Z,19.10
2018-11-03T11:16:43.495Z,17.70
2018-11-03T11:17:43.461Z,17.10
2018-11-03T11:18:43.472Z,19.50
2018-11-03T11:19:43.486Z,21.10
2018-11-03T11:20:43.573Z,19.80
2018-11-03T11:21:43.505Z,17.90
2018-11-03T11:22:43.517Z,17.00
2018-11-03T11:23:43.619Z,18.50
2018-11-03T11:24:43.721Z,17.70
2018-11-03T11:25:43.545Z,19.50
2018-11-03T11:26:43.557Z,17.30
2018-11-03T11:27:43.577Z,17.50
2018-11-03T11:28:43.578Z,16.20
2018-11-03T11:29:43.647Z,21.10
2018-11-03T11:30:43.842Z,18.80
2018-11-03T11:31:43.826Z,17.10
2018-11-03T11:32:43.685Z,17.80
2018-11-03T11:34:43.743Z,21.10
2018-11-03T11:35:44.361Z,19.30
2018-11-03T11:36:43.899Z,19.70
2018-11-03T11:37:43.767Z,18.10
2018-11-03T11:38:43.838Z,20.60
2018-11-03T11:39:43.702Z,18.30
2018-11-03T11:40:43.811Z,18.90
2018-11-03T11:41:43.733Z,16.60
2018-11-03T11:42:43.730Z,16.30
2018-11-03T11:43:43.939Z,20.30
2018-11-03T11:44:43.933Z,16.60
2018-11-03T11:45:44.055Z,15.00
2018-11-03T11:46:43.940Z,19.30
2018-11-03T11:47:43.783Z,15.00
2018-11-03T11:48:43.909Z,15.70
2018-11-03T11:49:44.016Z,16.40
2018-11-03T11:50:43.815Z,17.30
2018-11-03T11:51:43.827Z,16.00
2018-11-03T11:52:43.837Z,17.10
2018-11-03T11:53:43.850Z,15.80
2018-11-03T11:54:43.908Z,14.60
2018-11-03T11:55:43.869Z,15.70
2018-11-03T11:56:43.933Z,14.40
2018-11-03T11:57:43.902Z,13.90
2018-11-03T11:58:43.934Z,12.80
2018-11-03T11:59:43.944Z,13.70
2018-11-03T12:00:43.950Z,14.00
2018-11-03T12:01:43.929Z,14.90
2018-11-03T12:02:43.943Z,14.00
2018-11-03T12:03:44.208Z,14.80
2018-11-03T12:04:44.063Z,14.20
2018-11-03T12:05:44.066Z,13.50
2018-11-03T12:06:44.004Z,13.00
2018-11-03T12:07:44.085Z,12.60
2018-11-03T12:08:44.029Z,15.20
2018-11-03T12:09:44.330Z,14.00
2018-11-03T12:10:44.031Z,14.00
2018-11-03T12:11:44.039Z,17.50
2018-11-03T12:12:44.063Z,17.40
2018-11-03T12:13:44.060Z,12.50
2018-11-03T12:14:44.071Z,14.00
2018-11-03T12:15:44.124Z,15.90
2018-11-03T12:16:44.093Z,14.40
2018-11-03T12:17:44.104Z,15.80
2018-11-03T12:18:44.116Z,14.80
2018-11-03T12:19:44.125Z,15.50
2018-11-03T12:20:44.358Z,16.00
2018-11-03T12:21:44.155Z,14.30
2018-11-03T12:22:44.158Z,14.40
2018-11-03T12:23:44.170Z,15.60
2018-11-03T12:24:44.182Z,15.70
2018-11-03T12:25:44.276Z,14.00
2018-11-03T12:26:44.790Z,13.70
2018-11-03T12:27:44.213Z,13.20
2018-11-03T12:28:44.241Z,14.90
2018-11-03T12:29:44.236Z,14.70
2018-11-03T12:30:44.248Z,12.90
2018-11-03T12:31:44.259Z,15.20
2018-11-03T12:32:44.269Z,11.20
2018-11-03T12:33:44.281Z,12.60
2018-11-03T12:34:44.291Z,15.20
2018-11-03T12:35:44.303Z,14.10
2018-11-03T12:36:44.325Z,15.50
2018-11-03T12:37:44.546Z,16.50
2018-11-03T12:38:44.476Z,14.50
2018-11-03T12:39:44.574Z,16.70
2018-11-03T12:40:44.488Z,13.00
2018-11-03T12:41:44.369Z,14.20
2018-11-03T12:42:44.383Z,11.70
2018-11-03T12:43:44.389Z,12.80
2018-11-03T12:44:44.402Z,13.00
2018-11-03T12:45:44.415Z,13.50
2018-11-03T12:46:44.436Z,15.50
2018-11-03T12:47:44.435Z,12.80
2018-11-03T12:48:44.447Z,11.20
2018-11-03T12:49:44.460Z,11.30
2018-11-03T12:50:44.501Z,12.90
2018-11-03T12:51:44.480Z,12.50
2018-11-03T12:52:44.489Z,13.20
2018-11-03T12:53:44.507Z,15.30
2018-11-03T12:54:44.513Z,12.30
2018-11-03T12:55:44.522Z,13.60
2018-11-03T12:56:44.593Z,13.10
2018-11-03T12:57:44.545Z,12.10
2018-11-03T12:58:44.835Z,14.50
2018-11-03T12:59:44.601Z,15.40
2018-11-03T13:00:44.578Z,13.20
2018-11-03T13:01:44.593Z,14.60
2018-11-03T13:02:44.605Z,12.80
2018-11-03T13:03:44.612Z,14.90
2018-11-03T13:04:44.623Z,15.90
2018-11-03T13:05:44.636Z,14.30
2018-11-03T13:06:44.646Z,14.70
2018-11-03T13:07:44.711Z,15.80
2018-11-03T13:08:44.922Z,15.10
2018-11-03T13:10:45.096Z,13.30
2018-11-03T13:11:44.716Z,13.40
2018-11-03T13:12:44.712Z,12.40
2018-11-03T13:13:44.727Z,14.80
2018-11-03T13:14:44.736Z,15.40
2018-11-03T13:15:44.759Z,13.70
2018-11-03T13:16:44.756Z,14.90
2018-11-03T13:17:44.770Z,12.80
2018-11-03T13:18:44.778Z,13.90
2018-11-03T13:19:44.788Z,14.10
2018-11-03T13:20:44.803Z,12.10
2018-11-03T13:21:44.834Z,12.90
2018-11-03T13:22:44.936Z,15.50
2018-11-03T13:23:44.847Z,13.50
2018-11-03T13:24:44.855Z,15.60